Time;durP1;ratioP1;P1;durP2;ratioP2;P2;SDS_P1;SDS_P2;PMS_P1;PMS_P2;Temp;Humidity;BMP_temperature;BMP_pressure;BME280_temperature;BME280_humidity;BME280_pressure;Samples;Min_cycle;Max_cycle;Signal;HPM_P1;HPM_P2
2023/12/15 00:01:14;;;;;;;37.78;23.85;;;;;;;1.96;100.00;100337.13;4953124;29;20031;-80
2023/12/15 00:03:39;;;;;;;42.83;24.63;;;;;;;2.11;100.00;100369.66;4936218;29;20404;-80
2023/12/15 00:06:05;;;;;;;39.90;24.85;;;;;;;2.13;100.00;100378.22;4953483;29;20027;-80
2023/12/15 00:08:30;;;;;;;39.97;23.60;;;;;;;1.90;100.00;100358.53;4953927;29;20043;-80
2023/12/15 00:10:55;;;;;;;38.33;24.30;;;;;;;2.00;100.00;100367.94;4953379;29;20110;-80
2023/12/15 00:13:21;;;;;;;35.85;23.33;;;;;;;1.93;100.00;100363.66;4953359;29;20023;-80
2023/12/15 00:15:46;;;;;;;40.63;23.60;;;;;;;1.93;100.00;100373.06;4953560;29;20023;-80
2023/12/15 00:18:11;;;;;;;39.75;23.52;;;;;;;1.80;100.00;100363.66;4953237;29;20029;-80
2023/12/15 00:20:37;;;;;;;37.38;22.70;;;;;;;2.03;100.00;100397.06;4953548;29;20033;-80
2023/12/15 00:23:02;;;;;;;42.83;23.90;;;;;;;1.84;100.00;100385.91;4953265;29;20066;-80
2023/12/15 00:25:27;;;;;;;37.33;22.60;;;;;;;1.57;100.00;100349.09;4953234;29;20055;-80
2023/12/15 00:27:53;;;;;;;38.25;23.15;;;;;;;1.68;100.00;100379.91;4954157;29;20051;-80
2023/12/15 00:30:18;;;;;;;39.33;22.70;;;;;;;1.86;100.00;100413.34;4953422;29;20447;-80
2023/12/15 00:32:44;;;;;;;39.00;23.67;;;;;;;1.72;100.00;100402.16;4953365;29;20564;-80
2023/12/15 00:35:09;;;;;;;40.33;22.67;;;;;;;1.73;100.00;100397.06;4953218;29;20031;-80
2023/12/15 00:37:35;;;;;;;38.17;22.52;;;;;;;1.62;100.00;100377.34;4953362;29;20431;-80
2023/12/15 00:40:00;;;;;;;39.05;22.45;;;;;;;1.87;100.00;100437.31;4935850;29;20536;-80
2023/12/15 00:42:25;;;;;;;39.88;23.95;;;;;;;1.73;100.00;100424.44;4936054;29;20032;-80
2023/12/15 00:44:51;;;;;;;37.15;22.23;;;;;;;1.65;100.00;100423.59;4953373;29;20054;-80
2023/12/15 00:47:16;;;;;;;41.47;24.45;;;;;;;1.67;100.00;100435.53;4952729;29;20540;-80
2023/12/15 00:49:41;;;;;;;38.97;23.50;;;;;;;1.77;100.00;100450.97;4936090;29;20031;-80
2023/12/15 00:52:07;;;;;;;43.33;23.45;;;;;;;1.53;100.00;100413.28;4953052;29;20031;-80
2023/12/15 00:54:33;;;;;;;46.15;27.42;;;;;;;1.71;100.00;100449.25;4953302;29;20034;-80
2023/12/15 00:56:59;;;;;;;63.80;39.10;;;;;;;1.76;100.00;100450.13;4953137;29;20027;-80
2023/12/15 00:59:24;;;;;;;72.22;39.28;;;;;;;1.68;100.00;100442.38;4935525;29;20452;-80
2023/12/15 01:01:50;;;;;;;54.60;28.77;;;;;;;1.72;100.00;100462.09;4953019;29;20028;-80
2023/12/15 01:04:15;;;;;;;80.03;38.33;;;;;;;1.73;100.00;100466.41;4953093;29;20520;-80
2023/12/15 01:06:40;;;;;;;67.53;31.58;;;;;;;1.70;100.00;100457.81;4955212;28;20023;-80
2023/12/15 01:09:06;;;;;;;48.38;27.23;;;;;;;1.49;100.00;100436.38;4956511;29;20054;-80
2023/12/15 01:11:31;;;;;;;49.08;27.08;;;;;;;1.62;100.00;100456.94;4956566;29;20050;-80
2023/12/15 01:13:57;;;;;;;50.55;28.45;;;;;;;1.68;100.00;100480.06;4957044;29;20381;-80
2023/12/15 01:16:22;;;;;;;51.08;28.85;;;;;;;1.53;100.00;100468.03;4956223;29;20031;-80
2023/12/15 01:18:47;;;;;;;44.45;26.98;;;;;;;1.54;100.00;100468.91;4939039;29;20042;-81
2023/12/15 01:21:12;;;;;;;38.20;25.50;;;;;;;1.69;100.00;100485.22;4956149;29;20031;-80
2023/12/15 01:23:38;;;;;;;41.13;23.92;;;;;;;1.47;100.00;100455.16;4956472;29;20051;-80
2023/12/15 01:26:04;;;;;;;35.50;22.52;;;;;;;1.41;100.00;100435.50;4956260;29;20054;-80
2023/12/15 01:28:29;;;;;;;38.72;22.50;;;;;;;1.75;100.00;100497.22;4956331;29;20027;-80
2023/12/15 01:30:55;;;;;;;38.90;22.85;;;;;;;1.71;100.00;100491.19;4956163;29;20384;-80
2023/12/15 01:33:20;;;;;;;39.97;24.63;;;;;;;1.69;100.00;100492.91;4956096;29;20472;-80
2023/12/15 01:35:45;;;;;;;38.42;23.92;;;;;;;1.87;100.00;100524.66;4956428;29;20035;-80
2023/12/15 01:38:11;;;;;;;37.85;23.20;;;;;;;1.86;100.00;100522.94;4938962;29;20038;-80
2023/12/15 01:40:36;;;;;;;39.03;22.95;;;;;;;1.78;100.00;100509.22;4938988;29;20063;-80
2023/12/15 01:43:02;;;;;;;36.67;22.00;;;;;;;1.91;100.00;100531.50;4955946;29;20440;-80
2023/12/15 01:45:28;;;;;;;36.17;22.67;;;;;;;1.79;100.00;100509.19;4955836;29;20031;-80
2023/12/15 01:47:54;;;;;;;33.65;20.17;;;;;;;1.77;100.00;100499.78;4956059;29;20531;-80
2023/12/15 01:50:19;;;;;;;34.15;20.23;;;;;;;1.80;100.00;100521.19;4956641;29;20034;-80
2023/12/15 01:52:44;;;;;;;32.92;20.25;;;;;;;1.76;100.00;100516.88;4964502;29;20041;-80
2023/12/15 01:55:10;;;;;;;33.50;20.95;;;;;;;1.66;100.00;100499.75;4969373;29;20381;-80
2023/12/15 01:57:35;;;;;;;34.75;20.45;;;;;;;1.89;100.00;100535.75;4968985;29;20566;-80
2023/12/15 02:00:06;;;;;;;35.33;20.00;;;;;;;1.38;100.00;100467.97;4969353;29;20023;-80
2023/12/15 02:02:32;;;;;;;31.10;20.10;;;;;;;1.86;100.00;100536.63;4944433;29;20393;-80
2023/12/15 02:04:57;;;;;;;33.42;20.42;;;;;;;1.70;100.00;100512.59;4938678;29;20023;-80
2023/12/15 02:07:22;;;;;;;34.45;21.48;;;;;;;1.65;100.00;100504.03;4955412;29;20039;-80
2023/12/15 02:09:48;;;;;;;38.17;22.83;;;;;;;1.89;100.00;100546.03;4955501;29;20501;-80
2023/12/15 02:12:13;;;;;;;36.67;23.08;;;;;;;1.71;100.00;100508.31;4955676;29;20424;-80
2023/12/15 02:14:42;;;;;;;44.58;27.83;;;;;;;1.81;100.00;100540.03;4955601;29;20071;-80
2023/12/15 02:17:07;;;;;;;45.58;26.55;;;;;;;1.77;100.00;100536.59;4954619;28;20023;-80
2023/12/15 02:19:33;;;;;;;47.55;28.40;;;;;;;1.82;100.00;100550.31;4955305;29;20036;-80
2023/12/15 02:21:58;;;;;;;45.90;27.50;;;;;;;1.57;100.00;100504.88;4955405;29;20112;-80
2023/12/15 02:24:23;;;;;;;45.13;26.63;;;;;;;1.84;100.00;100548.59;4955141;29;20043;-80
2023/12/15 02:26:49;;;;;;;48.13;27.13;;;;;;;1.79;100.00;100544.31;4937932;29;20027;-80
2023/12/15 02:29:14;;;;;;;43.78;25.92;;;;;;;1.76;100.00;100555.41;4954708;29;20086;-80
2023/12/15 02:31:39;;;;;;;46.17;27.63;;;;;;;1.76;100.00;100560.56;4955117;29;20078;-80
2023/12/15 02:34:05;;;;;;;43.30;25.58;;;;;;;1.63;100.00;100533.97;4955065;29;20453;-80
2023/12/15 02:36:30;;;;;;;43.13;25.90;;;;;;;1.65;100.00;100528.88;4955006;29;20444;-80
2023/12/15 02:38:55;;;;;;;40.03;24.80;;;;;;;1.81;100.00;100566.56;4954953;29;20480;-80
2023/12/15 02:41:21;;;;;;;43.88;26.55;;;;;;;1.50;100.00;100520.22;4954425;29;20544;-80
2023/12/15 02:43:46;;;;;;;45.90;27.75;;;;;;;1.57;100.00;100523.69;4954875;29;20440;-80
2023/12/15 02:46:12;;;;;;;43.15;26.95;;;;;;;1.63;100.00;100553.66;4954554;29;20106;-80
2023/12/15 02:48:37;;;;;;;40.58;26.05;;;;;;;1.55;100.00;100552.75;4954934;29;20031;-80
2023/12/15 02:51:02;;;;;;;44.42;26.50;;;;;;;1.61;100.00;100565.66;4954876;29;20041;-80
2023/12/15 02:53:28;;;;;;;38.65;24.08;;;;;;;1.32;100.00;100519.28;4937026;29;20027;-80
2023/12/15 02:55:53;;;;;;;39.95;24.77;;;;;;;1.64;100.00;100568.22;4954776;29;20054;-80
2023/12/15 02:58:19;;;;;;;37.13;22.60;;;;;;;1.60;100.00;100567.34;4954346;29;20110;-80
2023/12/15 03:00:46;;;;;;;39.60;22.05;;;;;;;1.61;100.00;100560.50;4954357;29;20042;-80
2023/12/15 03:03:12;;;;;;;38.65;22.48;;;;;;;1.60;100.00;100566.47;4954301;29;20039;-80
2023/12/15 03:05:37;;;;;;;37.67;22.13;;;;;;;1.22;100.00;100510.69;4954521;29;20102;-80
2023/12/15 03:08:02;;;;;;;38.83;22.38;;;;;;;1.43;100.00;100549.31;4954785;29;20031;-80
2023/12/15 03:10:28;;;;;;;41.13;24.38;;;;;;;1.30;100.00;100536.38;4954040;29;20541;-80
2023/12/15 03:12:53;;;;;;;39.00;22.90;;;;;;;1.39;100.00;100552.72;4954380;29;20493;-80
2023/12/15 03:15:18;;;;;;;36.60;21.90;;;;;;;1.30;100.00;100546.66;4953745;29;20504;-80
2023/12/15 03:17:44;;;;;;;35.25;23.00;;;;;;;1.47;100.00;100571.53;4954665;29;20035;-80
2023/12/15 03:20:09;;;;;;;37.35;23.70;;;;;;;1.49;100.00;100582.69;4953879;29;20027;-80
2023/12/15 03:22:36;;;;;;;36.88;23.95;;;;;;;1.47;100.00;100579.25;4954265;29;20031;-81
2023/12/15 03:25:01;;;;;;;35.38;21.67;;;;;;;1.27;100.00;100544.09;4954239;29;20031;-80
2023/12/15 03:27:27;;;;;;;37.13;22.40;;;;;;;1.44;100.00;100568.13;4954138;29;20376;-80
2023/12/15 03:29:52;;;;;;;37.00;21.73;;;;;;;1.43;100.00;100572.41;4953405;28;20250;-80
2023/12/15 03:32:17;;;;;;;36.03;22.55;;;;;;;1.39;100.00;100573.25;4954210;29;20093;-80
2023/12/15 03:34:43;;;;;;;41.20;23.70;;;;;;;1.62;100.00;100623.84;4954124;29;20062;-80
2023/12/15 03:37:11;;;;;;;38.97;22.77;;;;;;;1.46;100.00;100584.38;4953818;29;20032;-80
2023/12/15 03:39:36;;;;;;;40.10;25.17;;;;;;;1.42;100.00;100590.34;4953897;29;20143;-80
2023/12/15 03:42:06;;;;;;;46.78;27.35;;;;;;;1.43;100.00;100592.06;4953915;29;20110;-80
2023/12/15 03:44:36;;;;;;;46.72;28.83;;;;;;;1.45;100.00;100603.22;4953493;29;20031;-80
2023/12/15 03:47:02;;;;;;;52.97;32.10;;;;;;;1.58;100.00;100634.94;4953955;29;20030;-80
2023/12/15 03:49:30;;;;;;;51.83;30.48;;;;;;;1.64;100.00;100646.09;4953678;29;20031;-80
2023/12/15 03:51:56;;;;;;;45.90;27.45;;;;;;;1.41;100.00;100609.19;4953811;29;20035;-80
2023/12/15 03:54:21;;;;;;;41.55;25.63;;;;;;;1.42;100.00;100613.47;4953906;29;20050;-80
2023/12/15 03:56:46;;;;;;;42.97;25.70;;;;;;;1.71;100.00;100655.56;4953641;29;20392;-80
2023/12/15 03:59:12;;;;;;;39.33;23.67;;;;;;;1.60;100.00;100638.38;4953103;29;20031;-80
2023/12/15 04:01:57;;;;;;;41.90;25.73;;;;;;;1.62;100.00;100645.25;4951203;29;20079;-80
2023/12/15 04:04:22;;;;;;;43.80;24.85;;;;;;;1.47;100.00;100632.31;4950929;29;20146;-80
2023/12/15 04:06:48;;;;;;;47.33;27.52;;;;;;;1.44;100.00;100617.75;4951088;29;20091;-80
2023/12/15 04:09:13;;;;;;;46.65;27.10;;;;;;;1.64;100.00;100653.78;4950433;28;20051;-80
2023/12/15 04:11:38;;;;;;;39.42;24.63;;;;;;;1.49;100.00;100630.63;4951216;29;20055;-80
2023/12/15 04:14:05;;;;;;;41.65;27.15;;;;;;;1.59;100.00;100655.50;4951331;29;20187;-80
2023/12/15 04:16:30;;;;;;;39.30;25.63;;;;;;;1.49;100.00;100633.19;4950894;29;20046;-80
2023/12/15 04:18:58;;;;;;;40.35;23.48;;;;;;;1.63;100.00;100664.06;4951071;28;20035;-80
2023/12/15 04:21:23;;;;;;;37.10;23.45;;;;;;;1.73;100.00;100681.28;4934350;29;20039;-80
2023/12/15 04:23:49;;;;;;;41.03;24.17;;;;;;;1.71;100.00;100678.69;4951252;29;20035;-80
2023/12/15 04:26:15;;;;;;;40.50;23.95;;;;;;;1.58;100.00;100660.63;4950788;29;20118;-80
2023/12/15 04:28:40;;;;;;;39.58;25.48;;;;;;;1.73;100.00;100686.41;4951039;29;20279;-80
2023/12/15 04:31:06;;;;;;;40.08;24.05;;;;;;;1.64;100.00;100673.50;4951058;29;20039;-80
2023/12/15 04:33:31;;;;;;;37.42;23.27;;;;;;;1.82;100.00;100699.31;4952372;29;20050;-80
2023/12/15 04:35:56;;;;;;;34.20;22.98;;;;;;;1.72;100.00;100693.22;4953306;29;20027;-80
2023/12/15 04:38:22;;;;;;;38.22;24.35;;;;;;;1.88;100.00;100713.88;4953080;29;20034;-81
2023/12/15 04:40:47;;;;;;;36.92;23.20;;;;;;;1.62;100.00;100686.31;4954092;28;20019;-81
2023/12/15 04:43:12;;;;;;;38.83;22.42;;;;;;;1.72;100.00;100700.94;4957045;29;20061;-81
2023/12/15 04:45:38;;;;;;;39.97;23.55;;;;;;;1.71;100.00;100700.94;4957000;29;20054;-81
2023/12/15 04:48:03;;;;;;;41.30;24.80;;;;;;;1.74;100.00;100721.50;4957066;29;20062;-81
2023/12/15 04:50:28;;;;;;;39.13;24.10;;;;;;;1.81;100.00;100730.09;4957044;29;20446;-81
2023/12/15 04:52:55;;;;;;;41.33;24.50;;;;;;;1.72;100.00;100713.78;4957413;29;20110;-81
2023/12/15 04:55:20;;;;;;;40.13;24.38;;;;;;;1.58;100.00;100696.56;4939044;29;20027;-81
2023/12/15 04:57:45;;;;;;;42.30;24.98;;;;;;;1.70;100.00;100724.91;4956795;29;20031;-81
2023/12/15 05:00:11;;;;;;;41.00;25.17;;;;;;;1.84;100.00;100742.97;4956857;29;20106;-81
2023/12/15 05:02:37;;;;;;;40.50;24.83;;;;;;;1.74;100.00;100737.78;4956614;29;20119;-81
2023/12/15 05:05:02;;;;;;;43.30;25.15;;;;;;;1.88;100.00;100757.56;4957011;29;20059;-81
2023/12/15 05:07:28;;;;;;;37.25;23.77;;;;;;;1.64;100.00;100727.41;4938862;29;20511;-81
2023/12/15 05:09:54;;;;;;;37.67;23.67;;;;;;;1.67;100.00;100737.72;4939187;29;20059;-81
2023/12/15 05:12:19;;;;;;;41.72;25.42;;;;;;;1.78;100.00;100773.75;4956529;29;20111;-81
2023/12/15 05:14:45;;;;;;;37.85;24.15;;;;;;;1.45;100.00;100716.16;4956691;29;20063;-81
2023/12/15 05:17:11;;;;;;;41.13;23.40;;;;;;;1.51;100.00;100718.75;4956435;29;20043;-81
2023/12/15 05:19:36;;;;;;;41.70;25.60;;;;;;;1.50;100.00;100727.31;4938813;29;20043;-81
2023/12/15 05:22:02;;;;;;;40.78;24.40;;;;;;;1.59;100.00;100744.50;4956387;29;20032;-81
2023/12/15 05:24:27;;;;;;;40.13;25.02;;;;;;;1.66;100.00;100748.84;4938762;29;20031;-81
2023/12/15 05:26:53;;;;;;;46.63;26.23;;;;;;;1.72;100.00;100767.72;4956153;29;20389;-82
2023/12/15 05:29:18;;;;;;;40.65;25.10;;;;;;;1.81;100.00;100778.91;4955936;29;20028;-81
2023/12/15 05:31:44;;;;;;;44.92;27.52;;;;;;;1.51;100.00;100731.59;4956328;29;20027;-82
2023/12/15 05:34:09;;;;;;;40.97;24.80;;;;;;;1.61;100.00;100747.97;4956628;29;20034;-81
2023/12/15 05:36:34;;;;;;;37.30;24.20;;;;;;;1.70;100.00;100763.44;4955838;29;20038;-81
2023/12/15 05:39:00;;;;;;;42.20;26.05;;;;;;;1.68;100.00;100765.09;4956012;29;20027;-82
2023/12/15 05:41:25;;;;;;;41.05;24.35;;;;;;;1.79;100.00;100775.47;4955606;29;20027;-81
2023/12/15 05:43:50;;;;;;;41.80;25.17;;;;;;;1.74;100.00;100765.16;4956079;29;20166;-81
2023/12/15 05:46:17;;;;;;;41.10;24.65;;;;;;;1.64;100.00;100747.97;4956066;29;20110;-82
2023/12/15 05:48:42;;;;;;;44.42;25.13;;;;;;;1.77;100.00;100766.88;4956032;29;20035;-82
2023/12/15 05:51:08;;;;;;;41.00;24.08;;;;;;;1.71;100.00;100760.84;4956053;29;20043;-82
2023/12/15 05:53:33;;;;;;;38.70;22.60;;;;;;;1.79;100.00;100783.19;4954557;28;20058;-82
2023/12/15 05:55:58;;;;;;;41.42;23.35;;;;;;;1.59;100.00;100755.63;4956039;29;20102;-81
2023/12/15 05:58:24;;;;;;;36.63;23.48;;;;;;;1.69;100.00;100784.84;4938352;29;20118;-81
2023/12/15 06:00:49;;;;;;;40.78;23.95;;;;;;;1.73;100.00;100790.00;4955739;29;20033;-81
2023/12/15 06:03:17;;;;;;;40.95;25.88;;;;;;;1.54;100.00;100785.56;4938251;29;20054;-82
2023/12/15 06:05:42;;;;;;;38.15;24.50;;;;;;;1.37;100.00;100790.53;4955447;29;20481;-82
2023/12/15 06:08:08;;;;;;;37.03;22.55;;;;;;;1.22;100.00;100763.03;4955490;29;20111;-81
2023/12/15 06:10:33;;;;;;;39.47;24.45;;;;;;;1.51;100.00;100795.78;4937932;29;20059;-82
2023/12/15 06:12:58;;;;;;;41.05;25.00;;;;;;;1.69;100.00;100823.34;4955505;29;20043;-81
2023/12/15 06:15:24;;;;;;;47.10;27.48;;;;;;;1.41;100.00;100774.31;4955191;29;20043;-82
2023/12/15 06:17:49;;;;;;;48.17;28.98;;;;;;;1.63;100.00;100819.00;4955342;29;20035;-81
2023/12/15 06:20:14;;;;;;;45.30;28.10;;;;;;;1.68;100.00;100817.31;4955308;29;20221;-81
2023/12/15 06:22:40;;;;;;;44.95;28.02;;;;;;;1.36;100.00;100793.09;4937765;29;20131;-81
2023/12/15 06:25:06;;;;;;;43.40;25.63;;;;;;;1.43;100.00;100802.56;4955507;29;20034;-81
2023/12/15 06:27:32;;;;;;;46.78;26.70;;;;;;;1.67;100.00;100841.28;4954898;29;20023;-81
2023/12/15 06:29:57;;;;;;;76.93;39.40;;;;;;;1.65;100.00;100834.44;4955513;29;20038;-81
2023/12/15 06:32:22;;;;;;;83.40;43.17;;;;;;;1.50;100.00;100818.03;4954962;29;20023;-82
2023/12/15 06:34:48;;;;;;;86.30;43.63;;;;;;;1.65;100.00;100849.84;4955083;29;20147;-81
2023/12/15 06:37:13;;;;;;;78.22;41.38;;;;;;;1.66;100.00;100852.44;4954805;29;20054;-82
2023/12/15 06:39:39;;;;;;;72.00;36.40;;;;;;;1.40;100.00;100813.69;4955197;29;20037;-82
2023/12/15 06:42:04;;;;;;;42.08;24.88;;;;;;;1.65;100.00;100860.97;4937882;29;20031;-82
2023/12/15 06:44:30;;;;;;;42.97;23.90;;;;;;;1.68;100.00;100857.56;4955081;29;20123;-82
2023/12/15 06:46:55;;;;;;;36.33;22.50;;;;;;;1.57;100.00;100842.06;4954907;29;20035;-82
2023/12/15 06:49:21;;;;;;;40.28;24.48;;;;;;;1.46;100.00;100829.13;4954699;29;20119;-81
2023/12/15 06:51:46;;;;;;;37.13;22.02;;;;;;;1.71;100.00;100870.44;4954546;29;20065;-81
2023/12/15 06:54:12;;;;;;;46.67;25.92;;;;;;;1.72;100.00;100877.28;4954921;29;20397;-81
2023/12/15 06:56:40;;;;;;;39.05;23.13;;;;;;;1.47;100.00;100838.53;4954855;29;20027;-81
2023/12/15 06:59:05;;;;;;;43.33;25.23;;;;;;;1.69;100.00;100877.28;4954851;29;20078;-81
2023/12/15 07:01:31;;;;;;;42.25;25.15;;;;;;;1.55;100.00;100855.72;4954322;29;20027;-81
2023/12/15 07:03:56;;;;;;;41.42;24.08;;;;;;;1.66;100.00;100878.09;4954540;28;20027;-81
2023/12/15 07:06:21;;;;;;;38.88;23.60;;;;;;;1.47;100.00;100850.53;4954553;29;20114;-81
2023/12/15 07:08:50;;;;;;;37.63;23.63;;;;;;;1.47;100.00;100858.22;4954256;29;20082;-81
2023/12/15 07:11:15;;;;;;;35.88;22.70;;;;;;;1.78;100.00;100903.03;4954374;29;20497;-82
2023/12/15 07:13:41;;;;;;;41.17;24.35;;;;;;;1.61;100.00;100872.06;4953151;29;20027;-81
2023/12/15 07:16:07;;;;;;;47.25;26.52;;;;;;;1.62;100.00;100872.94;4952856;29;20548;-81
2023/12/15 07:18:33;;;;;;;45.53;27.02;;;;;;;1.86;100.00;100903.13;4954011;29;20041;-81
2023/12/15 07:20:58;;;;;;;51.75;28.30;;;;;;;1.70;100.00;100886.69;4954068;29;20086;-81
2023/12/15 07:23:23;;;;;;;46.08;28.17;;;;;;;1.92;100.00;100924.56;4953917;29;20027;-81
2023/12/15 07:25:49;;;;;;;53.95;31.65;;;;;;;1.69;100.00;100888.41;4954257;29;20023;-81
2023/12/15 07:28:14;;;;;;;45.05;26.52;;;;;;;1.72;100.00;100905.53;4954232;29;20059;-82
2023/12/15 07:30:39;;;;;;;46.53;27.60;;;;;;;1.68;100.00;100932.03;4953907;29;20027;-82
2023/12/15 07:33:05;;;;;;;43.60;25.67;;;;;;;1.46;100.00;100930.97;4952772;29;20023;-81
2023/12/15 07:35:30;;;;;;;42.25;25.70;;;;;;;1.24;100.00;100912.75;4953636;29;20026;-81
2023/12/15 07:37:55;;;;;;;43.83;26.20;;;;;;;1.12;100.00;100901.47;4952517;29;20031;-81
2023/12/15 07:40:21;;;;;;;47.30;26.30;;;;;;;1.29;100.00;100937.59;4953792;29;20106;-81
2023/12/15 07:42:47;;;;;;;44.90;26.48;;;;;;;1.18;100.00;100919.50;4953623;29;20027;-81
2023/12/15 07:45:12;;;;;;;47.00;25.95;;;;;;;0.95;100.00;100883.31;4953608;29;20391;-81
2023/12/15 07:47:38;;;;;;;42.88;26.30;;;;;;;1.13;100.00;100918.59;4952207;29;20114;-81
2023/12/15 07:50:04;;;;;;;46.90;28.13;;;;;;;1.12;100.00;100922.00;4953660;29;20059;-81
2023/12/15 07:52:29;;;;;;;47.47;26.98;;;;;;;1.08;100.00;100915.13;4953476;29;20058;-81
2023/12/15 07:54:54;;;;;;;45.35;28.60;;;;;;;1.32;100.00;100945.34;4954133;28;20066;-82
2023/12/15 07:57:19;;;;;;;47.50;26.67;;;;;;;1.35;100.00;100968.47;4952463;29;20050;-82
2023/12/15 07:59:46;;;;;;;45.25;26.90;;;;;;;1.13;100.00;100928.84;4952155;29;20035;-81
2023/12/15 08:02:11;;;;;;;52.95;29.33;;;;;;;1.19;100.00;100936.66;4953771;29;20024;-81
2023/12/15 08:04:37;;;;;;;59.80;34.75;;;;;;;1.23;100.00;100941.84;4953459;29;20086;-81
2023/12/15 08:07:03;;;;;;;64.95;34.97;;;;;;;1.14;100.00;100925.47;4936338;29;20019;-81
2023/12/15 08:09:28;;;;;;;61.08;36.55;;;;;;;1.35;100.00;100965.91;4953175;29;20085;-81
2023/12/15 08:11:54;;;;;;;65.20;37.90;;;;;;;1.45;100.00;100972.88;4953756;29;20125;-81
2023/12/15 08:14:19;;;;;;;64.32;36.55;;;;;;;1.39;100.00;100967.66;4952317;29;20074;-81
2023/12/15 08:16:44;;;;;;;69.40;39.47;;;;;;;1.25;100.00;100940.13;4952891;29;20495;-81
2023/12/15 08:19:10;;;;;;;57.30;33.33;;;;;;;1.47;100.00;100984.03;4953474;29;20445;-81
2023/12/15 08:21:35;;;;;;;58.05;33.30;;;;;;;1.44;100.00;100986.56;4953198;29;20033;-81
2023/12/15 08:24:01;;;;;;;56.83;31.60;;;;;;;1.52;100.00;101002.03;4953669;29;20058;-82
2023/12/15 08:26:27;;;;;;;58.70;33.40;;;;;;;1.57;100.00;101005.56;4953555;29;20054;-81
2023/12/15 08:28:56;;;;;;;53.78;30.70;;;;;;;1.19;100.00;100947.78;4953844;29;20031;-80
2023/12/15 08:31:22;;;;;;;56.80;31.88;;;;;;;1.62;100.00;101025.28;4954695;29;20462;-81
2023/12/15 08:33:48;;;;;;;52.95;29.88;;;;;;;1.46;100.00;100978.03;4954307;29;20529;-81
2023/12/15 08:36:14;;;;;;;49.97;29.50;;;;;;;1.44;100.00;100984.00;4937523;29;20027;-81
2023/12/15 08:38:39;;;;;;;51.00;27.65;;;;;;;1.54;100.00;100993.53;4954257;29;20500;-80
2023/12/15 08:41:05;;;;;;;53.40;28.83;;;;;;;1.39;100.00;100965.09;4953660;29;20031;-81
2023/12/15 08:43:31;;;;;;;49.38;28.35;;;;;;;1.42;100.00;100978.84;4952329;29;20034;-81
2023/12/15 08:45:56;;;;;;;55.55;35.25;;;;;;;1.56;100.00;101002.13;4953825;29;20060;-81
2023/12/15 08:48:22;;;;;;;55.20;35.60;;;;;;;1.52;100.00;100996.91;4953116;29;20492;-81
2023/12/15 08:50:48;;;;;;;58.17;36.35;;;;;;;1.73;100.00;101035.72;4935566;29;20492;-81
2023/12/15 08:53:15;;;;;;;55.17;34.65;;;;;;;1.73;100.00;101033.16;4953126;29;20038;-81
2023/12/15 08:55:41;;;;;;;53.75;32.20;;;;;;;1.51;100.00;100996.06;4952967;29;20043;-81
2023/12/15 08:58:06;;;;;;;54.60;30.83;;;;;;;1.53;100.00;101004.66;4953148;29;20027;-81
2023/12/15 09:00:31;;;;;;;56.90;31.42;;;;;;;1.69;100.00;101033.94;4952762;29;20366;-81
2023/12/15 09:02:57;;;;;;;53.33;30.35;;;;;;;1.53;100.00;101012.34;4951967;29;20067;-81
2023/12/15 09:05:23;;;;;;;59.92;34.05;;;;;;;1.54;100.00;101013.22;4952810;29;20086;-81
2023/12/15 09:07:51;;;;;;;60.97;34.08;;;;;;;1.78;100.00;101056.31;4952835;29;20600;-81
2023/12/15 09:10:16;;;;;;;50.92;30.60;;;;;;;1.68;100.00;101042.47;4952810;29;20051;-81
2023/12/15 09:12:42;;;;;;;54.88;32.30;;;;;;;1.84;100.00;101062.38;4952869;29;20027;-81
2023/12/15 09:15:07;;;;;;;56.97;35.00;;;;;;;1.58;100.00;101014.97;4951527;29;20038;-80
2023/12/15 09:17:33;;;;;;;71.68;41.13;;;;;;;1.84;100.00;101054.66;4952681;29;20662;-81
2023/12/15 09:19:58;;;;;;;63.33;35.63;;;;;;;1.68;100.00;101016.78;4952683;29;20086;-81
2023/12/15 09:22:23;;;;;;;56.55;32.88;;;;;;;1.91;100.00;101063.31;4952912;29;20083;-81
2023/12/15 09:24:49;;;;;;;54.95;31.50;;;;;;;1.93;100.00;101067.59;4951425;29;20073;-81
2023/12/15 09:27:14;;;;;;;57.50;33.40;;;;;;;1.86;100.00;101060.69;4952723;28;20031;-81
2023/12/15 09:29:39;;;;;;;59.90;33.53;;;;;;;1.73;100.00;101030.56;4956161;29;20082;-81
2023/12/15 09:32:05;;;;;;;58.55;33.13;;;;;;;1.71;100.00;101027.97;4956260;29;20424;-80
2023/12/15 09:34:30;;;;;;;64.68;35.75;;;;;;;1.83;100.00;101052.09;4955366;29;20465;-81
2023/12/15 09:36:56;;;;;;;69.18;37.47;;;;;;;1.99;100.00;101077.09;4938845;29;20118;-80
2023/12/15 09:39:22;;;;;;;73.50;40.60;;;;;;;2.00;100.00;101073.69;4954625;29;20053;-81
2023/12/15 09:41:48;;;;;;;64.72;36.95;;;;;;;1.94;100.00;101063.34;4955890;29;20027;-81
2023/12/15 09:44:15;;;;;;;66.07;37.15;;;;;;;2.01;100.00;101072.84;4956101;29;20027;-78
2023/12/15 09:46:42;;;;;;;54.50;33.83;;;;;;;2.00;100.00;101065.97;4955934;29;20043;-81
2023/12/15 09:49:14;;;;;;;62.63;33.88;;;;;;;1.52;100.00;100990.09;4955636;29;20119;-81
2023/12/15 09:51:47;;;;;;;60.88;34.78;;;;;;;2.01;100.00;101062.56;4954629;29;20027;-79
2023/12/15 09:54:12;;;;;;;51.90;31.88;;;;;;;2.07;100.00;101070.34;4956052;28;20039;-80
2023/12/15 09:56:38;;;;;;;49.50;30.58;;;;;;;2.11;100.00;101063.53;4955569;29;20049;-81
2023/12/15 09:59:05;;;;;;;54.60;30.45;;;;;;;2.09;100.00;101066.06;4955771;29;20026;-80
2023/12/15 10:01:31;;;;;;;51.10;29.75;;;;;;;2.19;100.00;101079.88;4938161;29;20034;-81
2023/12/15 10:03:57;;;;;;;48.80;29.00;;;;;;;2.17;100.00;101067.00;4955445;29;20559;-81
2023/12/15 10:06:23;;;;;;;46.80;28.58;;;;;;;2.20;100.00;101064.47;4955775;29;20071;-81
2023/12/15 10:08:48;;;;;;;50.28;29.10;;;;;;;2.31;100.00;101074.00;4937971;29;20023;-81
2023/12/15 10:11:16;;;;;;;47.92;29.55;;;;;;;2.24;100.00;101057.66;4955835;29;20476;-80
2023/12/15 10:13:42;;;;;;;48.00;29.65;;;;;;;1.97;100.00;101014.53;4955462;29;20039;-79
2023/12/15 10:16:09;;;;;;;49.50;29.15;;;;;;;2.32;100.00;101062.84;4938298;29;20027;-81
2023/12/15 10:18:34;;;;;;;50.42;29.60;;;;;;;2.29;100.00;101050.84;4938173;29;20046;-81
2023/12/15 10:21:00;;;;;;;48.58;27.30;;;;;;;2.33;100.00;101075.75;4954445;29;20027;-81
2023/12/15 10:23:29;;;;;;;47.03;27.70;;;;;;;2.39;100.00;101083.50;4954083;29;20024;-81
2023/12/15 10:25:58;;;;;;;47.55;27.17;;;;;;;2.44;100.00;101089.59;4955350;29;20031;-80
2023/12/15 10:28:23;;;;;;;47.55;27.95;;;;;;;2.43;100.00;101068.97;4938257;29;20027;-81
2023/12/15 10:30:50;;;;;;;134.02;36.78;;;;;;;2.37;100.00;101045.78;4954902;29;20049;-80
2023/12/15 10:33:17;;;;;;;50.97;26.88;;;;;;;2.36;100.00;101044.03;4954210;29;20116;-79
2023/12/15 10:35:50;;;;;;;44.70;26.52;;;;;;;2.62;100.00;101081.16;4955145;29;20027;-81
2023/12/15 10:38:15;;;;;;;77.95;30.02;;;;;;;2.43;100.00;101031.25;4955006;28;20039;-81
2023/12/15 10:40:42;;;;;;;86.97;31.42;;;;;;;2.40;100.00;101027.78;4955474;29;20495;-82
2023/12/15 10:43:10;;;;;;;85.93;32.05;;;;;;;2.49;100.00;101026.19;4937438;29;20038;-79
2023/12/15 10:45:36;;;;;;;57.35;27.65;;;;;;;2.80;100.00;101074.44;4955160;29;20035;-81
2023/12/15 10:48:02;;;;;;;43.58;24.90;;;;;;;2.73;100.00;101061.50;4955364;29;20536;-78
2023/12/15 10:50:29;;;;;;;36.95;22.50;;;;;;;2.88;100.00;101081.38;4937800;29;20031;-81
2023/12/15 10:52:55;;;;;;;38.00;22.52;;;;;;;2.84;100.00;101071.06;4954885;29;20087;-80
2023/12/15 10:55:25;;;;;;;36.28;22.05;;;;;;;2.86;100.00;101082.19;4937257;29;20023;-79
2023/12/15 10:57:50;;;;;;;35.22;22.77;;;;;;;2.86;100.00;101079.63;4954374;29;20053;-81
2023/12/15 11:00:17;;;;;;;36.97;22.70;;;;;;;2.96;100.00;101095.16;4954886;29;20023;-80
2023/12/15 11:02:47;;;;;;;36.53;23.35;;;;;;;2.95;100.00;101098.59;4954591;29;20477;-81